createdAt,value
2023-04-25T00:00:18.878Z,7.10
2023-04-25T00:02:45.763Z,6.68
2023-04-25T00:05:13.120Z,6.50
2023-04-25T00:07:39.998Z,7.60
2023-04-25T00:10:07.689Z,6.53
2023-04-25T00:12:34.922Z,6.78
2023-04-25T00:15:01.898Z,6.60
2023-04-25T00:17:29.410Z,6.53
2023-04-25T00:19:56.913Z,8.23
2023-04-25T00:22:23.521Z,7.20
2023-04-25T00:24:50.493Z,7.07
2023-04-25T00:27:17.372Z,7.97
2023-04-25T00:29:43.965Z,6.75
2023-04-25T00:32:11.019Z,7.90
2023-04-25T00:34:37.710Z,6.93
2023-04-25T00:37:04.414Z,6.85
2023-04-25T00:39:31.455Z,6.15
2023-04-25T00:41:58.941Z,6.82
2023-04-25T00:44:26.186Z,6.93
2023-04-25T00:46:55.316Z,6.72
2023-04-25T00:49:22.174Z,6.88
2023-04-25T00:51:49.270Z,6.43
2023-04-25T00:54:16.756Z,7.05
2023-04-25T00:56:43.949Z,6.82
2023-04-25T00:59:10.899Z,7.32
2023-04-25T01:01:39.219Z,6.80
2023-04-25T01:04:06.240Z,6.80
2023-04-25T01:06:33.220Z,7.28
2023-04-25T01:09:00.696Z,7.18
2023-04-25T01:11:27.507Z,8.27
2023-04-25T01:13:54.202Z,7.20
2023-04-25T01:16:21.523Z,6.88
2023-04-25T01:18:48.908Z,7.15
2023-04-25T01:21:15.884Z,7.88
2023-04-25T01:23:43.763Z,7.25
2023-04-25T01:26:12.465Z,8.07
2023-04-25T01:28:46.680Z,7.13
2023-04-25T01:33:40.256Z,8.40
2023-04-25T01:36:07.389Z,6.70
2023-04-25T01:38:34.336Z,7.85
2023-04-25T01:41:01.064Z,8.10
2023-04-25T01:43:27.983Z,9.18
2023-04-25T01:45:55.378Z,10.60
2023-04-25T01:48:22.120Z,9.60
2023-04-25T01:50:48.948Z,7.43
2023-04-25T01:53:15.885Z,7.43
2023-04-25T01:55:42.685Z,7.97
2023-04-25T01:58:11.023Z,7.63
2023-04-25T02:00:41.780Z,7.65
2023-04-25T02:03:09.598Z,7.70
2023-04-25T02:05:40.475Z,7.13
2023-04-25T02:08:09.297Z,7.65
2023-04-25T02:10:36.525Z,7.35
2023-04-25T02:13:03.929Z,7.38
2023-04-25T02:15:30.896Z,7.60
2023-04-25T02:17:57.825Z,8.07
2023-04-25T02:20:26.085Z,7.93
2023-04-25T02:22:52.846Z,7.97
2023-04-25T02:25:21.061Z,10.68
2023-04-25T02:27:49.319Z,7.72
2023-04-25T02:30:16.370Z,8.05
2023-04-25T02:32:43.204Z,8.68
2023-04-25T02:35:10.990Z,8.05
2023-04-25T02:37:38.956Z,7.75
2023-04-25T02:40:06.751Z,7.95
2023-04-25T02:42:33.770Z,8.32
2023-04-25T02:45:00.440Z,9.02
2023-04-25T02:47:27.346Z,7.45
2023-04-25T02:49:54.218Z,8.02
2023-04-25T02:52:22.245Z,7.43
2023-04-25T02:54:48.861Z,8.43
2023-04-25T02:57:15.966Z,8.63
2023-04-25T02:59:42.566Z,8.38
2023-04-25T03:02:09.294Z,8.57
2023-04-25T03:04:36.287Z,9.30
2023-04-25T03:07:03.514Z,8.30
2023-04-25T03:09:30.095Z,9.23
2023-04-25T03:11:56.864Z,8.57
2023-04-25T03:14:23.474Z,8.95
2023-04-25T03:16:50.171Z,10.85
2023-04-25T03:19:19.872Z,9.75
2023-04-25T03:21:46.559Z,8.90
2023-04-25T03:24:13.482Z,9.70
2023-04-25T03:26:40.554Z,8.88
2023-04-25T03:29:07.271Z,10.90
2023-04-25T03:31:33.965Z,9.75
2023-04-25T03:34:01.339Z,8.75
2023-04-25T03:36:28.045Z,10.20
2023-04-25T03:38:54.743Z,8.80
2023-04-25T03:41:22.164Z,9.00
2023-04-25T03:43:49.062Z,9.73
2023-04-25T03:46:15.896Z,10.80
2023-04-25T03:48:46.441Z,10.30
2023-04-25T03:51:13.058Z,10.43
2023-04-25T03:53:39.687Z,11.25
2023-04-25T03:56:06.910Z,10.38
2023-04-25T03:58:33.522Z,10.48
2023-04-25T04:01:00.356Z,11.10
2023-04-25T04:03:27.818Z,9.98
2023-04-25T04:05:54.839Z,10.20
2023-04-25T04:08:21.600Z,10.52
2023-04-25T04:10:48.526Z,16.02
2023-04-25T04:13:15.342Z,15.55
2023-04-25T04:15:42.123Z,14.65
2023-04-25T04:18:09.092Z,19.15
2023-04-25T04:20:35.938Z,18.65
2023-04-25T04:23:02.614Z,16.35
2023-04-25T04:25:29.965Z,21.27
2023-04-25T04:27:56.662Z,18.58
2023-04-25T04:30:30.792Z,16.55
2023-04-25T04:35:25.836Z,14.40
2023-04-25T04:37:52.636Z,12.40
2023-04-25T04:40:19.664Z,13.15
2023-04-25T04:42:47.665Z,12.32
2023-04-25T04:45:14.742Z,11.80
2023-04-25T04:47:41.709Z,14.02
2023-04-25T04:50:10.329Z,12.32
2023-04-25T04:52:38.078Z,12.57
2023-04-25T04:55:06.538Z,12.75
2023-04-25T04:57:34.085Z,12.13
2023-04-25T05:00:00.961Z,11.98
2023-04-25T05:02:28.452Z,12.95
2023-04-25T05:04:55.625Z,13.05
2023-04-25T05:07:22.666Z,12.13
2023-04-25T05:09:51.155Z,10.75
2023-04-25T05:12:17.792Z,11.70
2023-04-25T05:14:44.776Z,12.00
2023-04-25T05:17:11.807Z,11.43
2023-04-25T05:19:39.033Z,11.88
2023-04-25T05:22:06.202Z,11.75
2023-04-25T05:24:32.816Z,11.15
2023-04-25T05:26:59.494Z,12.63
2023-04-25T05:29:26.448Z,12.38
2023-04-25T05:31:54.130Z,11.95
2023-04-25T05:34:20.938Z,11.43
2023-04-25T05:36:49.575Z,10.95
2023-04-25T05:39:19.346Z,11.55
2023-04-25T05:41:46.036Z,16.58
2023-04-25T05:44:13.036Z,14.18
2023-04-25T05:46:40.071Z,12.52
2023-04-25T05:49:06.804Z,12.60
2023-04-25T05:51:33.749Z,11.77
2023-04-25T05:54:00.704Z,13.65
2023-04-25T05:56:27.410Z,13.57
2023-04-25T05:58:54.622Z,15.32
2023-04-25T06:01:22.930Z,14.10
2023-04-25T06:03:50.084Z,13.80
2023-04-25T06:06:17.497Z,13.52
2023-04-25T06:08:48.413Z,13.85
2023-04-25T06:11:15.085Z,13.88
2023-04-25T06:13:41.950Z,12.52
2023-04-25T06:16:08.838Z,15.00
2023-04-25T06:18:35.802Z,11.68
2023-04-25T06:21:02.741Z,11.23
2023-04-25T06:23:29.578Z,10.93
2023-04-25T06:25:56.258Z,10.50
2023-04-25T06:28:23.273Z,9.95
2023-04-25T06:30:50.030Z,8.88
2023-04-25T06:33:16.624Z,9.07
2023-04-25T06:35:43.616Z,9.07
2023-04-25T06:38:10.384Z,7.80
2023-04-25T06:40:37.032Z,8.80
2023-04-25T06:43:03.893Z,8.35
2023-04-25T06:45:30.889Z,8.48
2023-04-25T06:47:57.584Z,7.95
2023-04-25T06:50:24.346Z,6.47
2023-04-25T06:52:51.359Z,8.57
2023-04-25T06:55:18.068Z,7.60
2023-04-25T06:57:45.108Z,8.00
2023-04-25T07:00:12.440Z,7.05
2023-04-25T07:02:39.269Z,7.03
2023-04-25T07:05:06.739Z,6.85
2023-04-25T07:07:33.468Z,6.53
2023-04-25T07:10:00.156Z,6.63
2023-04-25T07:12:26.898Z,6.63
2023-04-25T07:14:53.597Z,7.43
2023-04-25T07:17:20.246Z,6.63
2023-04-25T07:19:47.131Z,7.75
2023-04-25T07:22:13.922Z,6.47
2023-04-25T07:24:40.904Z,7.90
2023-04-25T07:27:07.847Z,6.30
2023-04-25T07:29:37.753Z,7.40
2023-04-25T07:32:04.924Z,6.40
2023-04-25T07:34:31.981Z,6.05
2023-04-25T07:37:00.306Z,5.78
2023-04-25T07:39:27.442Z,11.02
2023-04-25T07:41:55.353Z,6.07
2023-04-25T07:44:22.527Z,6.90
2023-04-25T07:46:49.262Z,6.15
2023-04-25T07:49:16.678Z,6.25
2023-04-25T07:51:44.543Z,5.97
2023-04-25T07:54:15.085Z,5.85
2023-04-25T07:56:52.167Z,5.85
2023-04-25T07:59:20.710Z,6.20
2023-04-25T08:01:47.814Z,5.97
2023-04-25T08:07:32.594Z,5.50
2023-04-25T08:09:59.254Z,5.30
2023-04-25T08:12:26.030Z,5.60
2023-04-25T08:14:52.765Z,4.97
2023-04-25T08:17:19.403Z,5.75
2023-04-25T08:19:46.119Z,5.28
2023-04-25T08:22:13.772Z,5.78
2023-04-25T08:24:40.518Z,7.13
2023-04-25T08:27:08.741Z,7.40
2023-04-25T08:29:36.151Z,5.72
2023-04-25T08:32:02.766Z,6.63
2023-04-25T08:34:29.386Z,5.15
2023-04-25T08:36:56.348Z,5.90
2023-04-25T08:39:23.057Z,5.68
2023-04-25T08:41:49.895Z,4.68
2023-04-25T08:44:17.948Z,4.85
2023-04-25T08:46:50.877Z,4.70
2023-04-25T08:49:20.065Z,5.78
2023-04-25T08:51:48.330Z,4.75
2023-04-25T08:54:30.210Z,4.68
2023-04-25T08:57:05.756Z,4.43
2023-04-25T08:59:33.452Z,4.70
2023-04-25T09:02:02.160Z,3.63
2023-04-25T09:04:31.253Z,4.22
2023-04-25T09:06:58.036Z,4.38
2023-04-25T09:09:25.460Z,4.53
2023-04-25T09:11:56.017Z,4.70
2023-04-25T09:14:26.163Z,4.03
2023-04-25T09:17:00.589Z,4.97
2023-04-25T09:19:39.836Z,5.72
2023-04-25T09:22:08.579Z,4.07
2023-04-25T09:24:41.000Z,4.45
2023-04-25T09:27:10.071Z,5.50
2023-04-25T09:29:38.879Z,4.35
2023-04-25T09:32:19.983Z,4.28
2023-04-25T09:34:52.046Z,4.90
2023-04-25T09:37:37.074Z,3.83
2023-04-25T09:40:08.424Z,3.75
2023-04-25T09:42:35.754Z,4.30
2023-04-25T09:45:04.880Z,4.30
2023-04-25T09:47:31.981Z,5.00
2023-04-25T09:49:59.482Z,4.53
2023-04-25T09:52:26.797Z,4.20
2023-04-25T09:54:54.113Z,4.15
2023-04-25T09:57:22.316Z,4.10
2023-04-25T09:59:51.148Z,4.00
2023-04-25T10:02:21.397Z,4.07
2023-04-25T10:04:54.007Z,4.07
2023-04-25T10:07:22.465Z,3.80
2023-04-25T10:09:51.454Z,4.57
2023-04-25T10:12:18.232Z,4.40
2023-04-25T10:14:46.878Z,3.90
2023-04-25T10:17:13.821Z,4.20
2023-04-25T10:19:40.530Z,5.15
2023-04-25T10:22:19.751Z,4.63
2023-04-25T10:24:47.755Z,4.10
2023-04-25T10:27:14.668Z,4.07
2023-04-25T10:29:44.428Z,3.90
2023-04-25T10:32:11.419Z,4.30
2023-04-25T10:34:48.290Z,3.58
2023-04-25T10:37:15.287Z,4.55
2023-04-25T10:39:43.453Z,3.85
2023-04-25T10:42:10.323Z,5.03
2023-04-25T10:44:39.192Z,4.55
2023-04-25T10:47:08.306Z,4.80
2023-04-25T10:49:42.507Z,5.20
2023-04-25T10:52:12.813Z,4.65
2023-04-25T10:54:59.184Z,6.75
2023-04-25T10:57:39.879Z,3.90
2023-04-25T11:00:10.795Z,4.90
2023-04-25T11:02:54.622Z,3.72
2023-04-25T11:05:54.959Z,3.80
2023-04-25T11:08:48.815Z,4.10
2023-04-25T11:11:17.398Z,3.85
2023-04-25T11:13:48.477Z,4.30
2023-04-25T11:18:48.854Z,3.78
2023-04-25T11:21:15.806Z,3.70
2023-04-25T11:23:48.896Z,4.70
2023-04-25T11:26:16.362Z,3.73
2023-04-25T11:28:46.318Z,4.97
2023-04-25T11:31:12.997Z,3.65
2023-04-25T11:33:41.790Z,5.88
2023-04-25T11:36:08.662Z,3.60
2023-04-25T11:38:35.659Z,3.65
2023-04-25T11:41:02.772Z,4.90
2023-04-25T11:43:29.477Z,4.55
2023-04-25T11:45:56.657Z,3.88
2023-04-25T11:48:25.883Z,3.40
2023-04-25T11:50:54.595Z,4.00
2023-04-25T11:53:21.507Z,2.83
2023-04-25T11:55:48.947Z,3.55
2023-04-25T11:58:15.577Z,3.75
2023-04-25T12:00:50.615Z,3.83
2023-04-25T12:03:19.777Z,3.03
2023-04-25T12:05:47.623Z,4.47
2023-04-25T12:08:15.516Z,4.10
2023-04-25T12:10:44.215Z,3.47
2023-04-25T12:13:27.810Z,3.75
2023-04-25T12:15:57.748Z,4.20
2023-04-25T12:18:28.951Z,5.07
2023-04-25T12:20:56.101Z,4.18
2023-04-25T12:23:29.743Z,3.58
2023-04-25T12:25:56.934Z,3.80
2023-04-25T12:28:25.307Z,3.95
2023-04-25T12:31:07.892Z,4.70
2023-04-25T12:33:38.717Z,5.25
2023-04-25T12:36:10.369Z,4.82
2023-04-25T12:38:41.785Z,5.57
2023-04-25T12:41:09.136Z,5.45
2023-04-25T12:43:36.328Z,4.00
2023-04-25T12:46:03.035Z,4.28
2023-04-25T12:48:29.713Z,3.40
2023-04-25T12:50:56.483Z,3.33
2023-04-25T12:53:25.377Z,3.63
2023-04-25T12:55:52.423Z,3.50
2023-04-25T12:58:20.173Z,4.50
2023-04-25T13:00:47.359Z,2.45
2023-04-25T13:03:14.360Z,1.85
2023-04-25T13:05:41.354Z,1.80
2023-04-25T13:08:08.493Z,1.70
2023-04-25T13:10:35.196Z,1.92
2023-04-25T13:13:02.381Z,2.30
2023-04-25T13:15:29.568Z,1.65
2023-04-25T13:17:57.221Z,1.77
2023-04-25T13:20:24.135Z,2.10
2023-04-25T13:22:50.954Z,1.80
2023-04-25T13:25:17.739Z,1.75
2023-04-25T13:27:45.843Z,2.42
2023-04-25T13:30:13.101Z,2.17
2023-04-25T13:32:40.652Z,2.58
2023-04-25T13:35:10.778Z,2.05
2023-04-25T13:37:38.398Z,3.03
2023-04-25T13:40:09.962Z,2.20
2023-04-25T13:42:37.834Z,2.05
2023-04-25T13:45:04.700Z,2.47
2023-04-25T13:47:31.708Z,2.45
2023-04-25T13:49:58.711Z,3.28
2023-04-25T13:52:25.444Z,2.30
2023-04-25T13:54:52.283Z,2.38
2023-04-25T13:57:19.685Z,3.15
2023-04-25T13:59:47.500Z,2.63
2023-04-25T14:02:14.456Z,2.13
2023-04-25T14:04:41.976Z,2.22
2023-04-25T14:07:09.461Z,3.70
2023-04-25T14:09:36.319Z,2.40
2023-04-25T14:12:03.232Z,3.00
2023-04-25T14:14:29.993Z,4.25
2023-04-25T14:16:58.093Z,5.63
2023-04-25T14:19:25.797Z,4.25
2023-04-25T14:21:52.432Z,3.38
2023-04-25T14:24:19.186Z,2.67
2023-04-25T14:26:46.104Z,3.08
2023-04-25T14:29:13.166Z,2.38
2023-04-25T14:31:41.495Z,2.28
2023-04-25T14:34:09.064Z,1.90
2023-04-25T14:36:37.467Z,1.73
2023-04-25T14:39:06.304Z,34.72
2023-04-25T14:41:33.345Z,42.83
2023-04-25T14:44:00.060Z,39.42
2023-04-25T14:46:27.680Z,38.00
2023-04-25T14:48:56.875Z,52.28
2023-04-25T14:51:23.709Z,99.38
2023-04-25T14:53:52.034Z,80.38
2023-04-25T14:56:19.813Z,47.38
2023-04-25T15:01:14.083Z,38.13
2023-04-25T15:03:48.607Z,61.42
2023-04-25T15:06:15.588Z,132.35
2023-04-25T15:08:42.225Z,55.35
2023-04-25T15:11:09.129Z,31.88
2023-04-25T15:13:36.004Z,47.58
2023-04-25T15:16:02.793Z,32.70
2023-04-25T15:18:29.469Z,34.08
2023-04-25T15:20:56.170Z,39.78
2023-04-25T15:23:23.055Z,74.45
2023-04-25T15:25:51.626Z,42.13
2023-04-25T15:28:18.373Z,57.10
2023-04-25T15:30:45.750Z,47.90
2023-04-25T15:33:12.537Z,67.50
2023-04-25T15:35:39.227Z,50.55
2023-04-25T15:38:06.615Z,54.42
2023-04-25T15:40:33.344Z,57.63
2023-04-25T15:43:00.591Z,49.30
2023-04-25T15:45:27.395Z,49.17
2023-04-25T15:47:57.386Z,45.97
2023-04-25T15:50:24.960Z,36.47
2023-04-25T15:52:52.187Z,32.80
2023-04-25T15:55:21.853Z,30.50
2023-04-25T15:57:51.223Z,30.63
2023-04-25T16:00:19.551Z,36.20
2023-04-25T16:02:48.647Z,31.70
2023-04-25T16:05:15.831Z,24.77
2023-04-25T16:07:44.026Z,20.80
2023-04-25T16:10:11.820Z,25.52
2023-04-25T16:12:42.093Z,25.00
2023-04-25T16:15:09.394Z,22.73
2023-04-25T16:17:36.475Z,42.17
2023-04-25T16:20:09.905Z,54.63
2023-04-25T16:22:38.892Z,33.22
2023-04-25T16:25:06.291Z,75.45
2023-04-25T16:27:34.790Z,33.78
2023-04-25T16:30:02.990Z,36.55
2023-04-25T16:32:29.857Z,38.72
2023-04-25T16:34:58.665Z,34.90
2023-04-25T16:37:26.200Z,42.30
2023-04-25T16:39:53.046Z,40.83
2023-04-25T16:42:19.853Z,47.83
2023-04-25T16:44:46.880Z,41.70
2023-04-25T16:47:16.871Z,45.63
2023-04-25T16:49:45.825Z,51.78
2023-04-25T16:52:13.146Z,78.22
2023-04-25T16:54:40.142Z,65.25
2023-04-25T16:57:11.021Z,87.75
2023-04-25T16:59:39.355Z,85.30
2023-04-25T17:02:08.473Z,87.15
2023-04-25T17:04:41.985Z,76.10
2023-04-25T17:07:09.186Z,84.13
2023-04-25T17:09:36.379Z,90.70
2023-04-25T17:12:10.884Z,92.20
2023-04-25T17:14:37.598Z,88.82
2023-04-25T17:17:04.556Z,90.88
2023-04-25T17:19:39.299Z,85.38
2023-04-25T17:22:06.598Z,96.15
2023-04-25T17:24:33.265Z,98.20
2023-04-25T17:27:00.156Z,82.10
2023-04-25T17:29:27.872Z,89.32
2023-04-25T17:31:54.617Z,83.55
2023-04-25T17:34:23.283Z,91.72
2023-04-25T17:36:50.185Z,99.43
2023-04-25T17:39:23.247Z,93.53
2023-04-25T17:41:50.112Z,90.63
2023-04-25T17:44:16.887Z,96.55
2023-04-25T17:46:43.798Z,97.55
2023-04-25T17:49:11.844Z,98.95
2023-04-25T17:51:38.632Z,89.63
2023-04-25T17:54:05.360Z,91.10
2023-04-25T17:56:34.310Z,89.35
2023-04-25T17:59:01.797Z,93.30
2023-04-25T18:01:30.991Z,88.97
2023-04-25T18:03:57.921Z,93.50
2023-04-25T18:06:24.816Z,105.15
2023-04-25T18:08:53.075Z,85.60
2023-04-25T18:11:20.151Z,89.15
2023-04-25T18:13:47.062Z,96.07
2023-04-25T18:16:16.009Z,99.22
2023-04-25T18:18:52.927Z,101.78
2023-04-25T18:21:20.347Z,97.60
2023-04-25T18:23:47.375Z,91.68
2023-04-25T18:26:14.599Z,102.65
2023-04-25T18:28:41.560Z,80.80
2023-04-25T18:31:09.555Z,100.47
2023-04-25T18:33:36.602Z,92.07
2023-04-25T18:36:03.321Z,92.00
2023-04-25T18:41:10.721Z,98.35
2023-04-25T18:43:46.870Z,93.82
2023-04-25T18:46:13.628Z,91.90
2023-04-25T18:48:42.694Z,87.57
2023-04-25T18:51:09.598Z,93.03
2023-04-25T18:53:37.466Z,93.00
2023-04-25T18:56:04.696Z,100.13
2023-04-25T18:58:31.651Z,107.13
2023-04-25T19:00:58.334Z,93.72
2023-04-25T19:03:25.377Z,98.80
2023-04-25T19:05:52.403Z,86.63
2023-04-25T19:08:19.249Z,95.10
2023-04-25T19:10:46.430Z,82.63
2023-04-25T19:13:13.754Z,79.53
2023-04-25T19:15:40.418Z,80.22
2023-04-25T19:18:07.117Z,75.05
2023-04-25T19:20:34.097Z,79.35
2023-04-25T19:23:01.099Z,80.88
2023-04-25T19:25:27.963Z,77.55
2023-04-25T19:27:54.718Z,109.30
2023-04-25T19:30:21.391Z,71.72
2023-04-25T19:32:48.119Z,84.93
2023-04-25T19:35:15.017Z,129.48
2023-04-25T19:37:47.052Z,78.35
2023-04-25T19:40:20.222Z,70.50
2023-04-25T19:42:47.355Z,99.18
2023-04-25T19:45:14.023Z,200.85
2023-04-25T19:47:42.053Z,64.47
2023-04-25T19:50:10.117Z,66.80
2023-04-25T19:52:38.002Z,117.13
2023-04-25T19:55:05.367Z,58.88
2023-04-25T19:57:37.826Z,77.03
2023-04-25T20:00:08.959Z,64.18
2023-04-25T20:02:35.705Z,52.95
2023-04-25T20:05:04.827Z,53.05
2023-04-25T20:07:31.555Z,56.97
2023-04-25T20:09:58.248Z,50.42
2023-04-25T20:12:24.994Z,53.53
2023-04-25T20:14:51.942Z,61.92
2023-04-25T20:17:18.606Z,66.20
2023-04-25T20:19:45.227Z,64.30
2023-04-25T20:22:12.231Z,68.35
2023-04-25T20:24:39.593Z,65.10
2023-04-25T20:27:07.404Z,63.97
2023-04-25T20:29:34.031Z,56.03
2023-04-25T20:32:02.709Z,51.63
2023-04-25T20:34:31.659Z,47.13
2023-04-25T20:36:58.329Z,54.00
2023-04-25T20:39:25.141Z,56.58
2023-04-25T20:41:52.666Z,57.75
2023-04-25T20:44:23.612Z,57.05
2023-04-25T20:46:51.676Z,60.83
2023-04-25T20:49:23.673Z,57.90
2023-04-25T20:51:50.411Z,61.90
2023-04-25T20:54:17.464Z,59.90
2023-04-25T20:56:44.863Z,60.92
2023-04-25T20:59:12.035Z,61.00
2023-04-25T21:01:38.716Z,59.35
2023-04-25T21:04:06.823Z,70.07
2023-04-25T21:06:34.664Z,66.90
2023-04-25T21:09:01.284Z,62.83
2023-04-25T21:11:28.096Z,60.97
2023-04-25T21:13:54.888Z,70.68
2023-04-25T21:16:21.550Z,59.63
2023-04-25T21:18:48.599Z,63.65
2023-04-25T21:21:15.341Z,54.42
2023-04-25T21:23:42.438Z,70.00
2023-04-25T21:26:09.188Z,62.88
2023-04-25T21:28:35.886Z,77.85
2023-04-25T21:31:03.225Z,71.45
2023-04-25T21:33:30.370Z,64.82
2023-04-25T21:35:57.004Z,64.63
2023-04-25T21:38:23.687Z,62.58
2023-04-25T21:40:50.464Z,88.82
2023-04-25T21:43:17.162Z,60.97
2023-04-25T21:46:06.339Z,80.18
2023-04-25T21:48:30.822Z,69.95
2023-04-25T21:50:57.570Z,95.73
2023-04-25T21:53:26.394Z,72.80
2023-04-25T21:55:53.481Z,58.47
2023-04-25T21:58:20.115Z,66.97
2023-04-25T22:00:46.833Z,86.80
2023-04-25T22:03:16.472Z,68.07
2023-04-25T22:05:44.326Z,58.45
2023-04-25T22:08:11.044Z,56.42
2023-04-25T22:10:40.102Z,70.32
2023-04-25T22:13:06.755Z,55.47
2023-04-25T22:15:33.381Z,57.55
2023-04-25T22:18:00.363Z,70.93
2023-04-25T22:20:28.055Z,55.25
2023-04-25T22:22:55.754Z,46.53
2023-04-25T22:25:26.794Z,51.03
2023-04-25T22:27:53.461Z,54.33
2023-04-25T22:30:20.227Z,76.40
2023-04-25T22:32:47.301Z,52.05
2023-04-25T22:35:14.012Z,76.97
2023-04-25T22:37:41.769Z,57.10
2023-04-25T22:40:11.828Z,67.18
2023-04-25T22:42:43.319Z,67.13
2023-04-25T22:45:11.026Z,54.20
2023-04-25T22:47:38.759Z,48.10
2023-04-25T22:50:13.166Z,94.63
2023-04-25T22:52:40.650Z,113.65
2023-04-25T22:55:07.531Z,89.45
2023-04-25T22:57:37.047Z,78.03
2023-04-25T23:00:09.769Z,102.32
2023-04-25T23:02:37.215Z,60.92
2023-04-25T23:05:06.997Z,78.82
2023-04-25T23:07:35.219Z,59.25
2023-04-25T23:10:02.087Z,103.03
2023-04-25T23:12:28.681Z,58.00
2023-04-25T23:14:55.644Z,63.80
2023-04-25T23:17:22.485Z,83.85
2023-04-25T23:19:49.107Z,101.53
2023-04-25T23:22:16.001Z,68.13
2023-04-25T23:24:42.608Z,66.10
2023-04-25T23:27:09.498Z,54.05
2023-04-25T23:29:36.528Z,52.22
2023-04-25T23:32:03.319Z,58.88
2023-04-25T23:34:31.651Z,76.93
2023-04-25T23:37:00.979Z,53.13
2023-04-25T23:39:28.223Z,64.28
2023-04-25T23:41:55.095Z,69.57
2023-04-25T23:44:23.601Z,48.45
2023-04-25T23:46:50.451Z,55.47
2023-04-25T23:49:17.114Z,62.97
2023-04-25T23:51:43.809Z,66.32
2023-04-25T23:54:10.494Z,62.95
2023-04-25T23:56:37.133Z,71.80
2023-04-25T23:59:04.177Z,90.80
